Latest Weather Observations for Burnie Port

IDT60801

Issued at 7:02 pm EDT Sunday 14 February 2016 (issued every 30 minutes, with the page automatically refreshed every 10 minutes)

About weather observations | Map of weather stations | Latest weather observations for TAS | Other Formats
Station Details ID: 091344 Name: BURNIE NTC AWS Lat: -41.05 Lon: 145.91 Height: 0.0 m
Data from the previous 72 hours. | See also: Recent months for locations in Tasmania
Date/Time
EDT
Temp
°C
App
Temp
°C
Dew
Point
Rel
Hum
%
Delta-T
°C
Wind Press
QNH
hPa
Press
MSL
hPa
Rain
since 9 am
mm
Dir
 
Spd
km/h
Gust
km/h
Spd
kts
Gust
kts
14/07:00pm 18.4 - - - - W 19 30 10 16 1007.7 1007.7 -
14/06:30pm 19.0 - - - - W 22 41 12 22 1007.5 1007.5 -
14/06:00pm 19.0 - - - - W 28 54 15 29 1007.3 1007.3 -
14/05:40pm 19.0 - - - - WSW 28 54 15 29 1007.2 1007.2 -
14/05:30pm 19.4 - - - - W 24 50 13 27 1006.9 1006.9 -
14/05:00pm 19.4 - - - - W 28 46 15 25 1006.7 1006.7 -
14/04:30pm 19.2 - - - - W 28 52 15 28 1006.3 1006.3 -
14/04:01pm 19.3 - - - - W 30 48 16 26 1006.1 1006.1 -
14/04:00pm 19.4 - - - - W 30 46 16 25 1006.1 1006.1 -
14/03:32pm 18.7 - - - - WSW 28 50 15 27 1006.2 1006.2 -
14/03:30pm 18.7 - - - - WSW 26 50 14 27 1006.1 1006.1 -
14/03:00pm 19.2 - - - - W 24 41 13 22 1006.0 1006.0 -
14/02:30pm 19.2 - - - - W 28 48 15 26 1005.8 1005.8 -
14/02:00pm 18.6 - - - - W 30 57 16 31 1005.7 1005.7 -
14/01:36pm 19.6 - - - - W 30 48 16 26 1005.3 1005.3 -
14/01:30pm 19.4 - - - - W 28 46 15 25 1005.3 1005.3 -
14/01:00pm 20.1 - - - - WNW 24 46 13 25 1005.1 1005.1 -
14/12:30pm 20.0 - - - - WNW 28 48 15 26 1005.2 1005.2 -
14/12:28pm 19.9 - - - - WNW 28 48 15 26 1005.3 1005.3 -
14/12:00pm 20.0 - - - - WNW 32 43 17 23 1005.3 1005.3 -
14/11:30am 18.9 - - - - WNW 28 43 15 23 1005.5 1005.5 -
14/11:00am 19.4 - - - - WNW 24 43 13 23 1005.7 1005.7 -
14/10:30am 18.4 - - - - W 19 37 10 20 1005.8 1005.8 -
14/10:00am 18.0 - - - - W 22 43 12 23 1005.9 1005.9 -
14/09:30am 17.5 - - - - W 17 28 9 15 1005.9 1005.9 -
14/09:00am 16.6 - - - - W 17 30 9 16 1005.8 1005.8 -
14/08:30am 16.0 - - - - WNW 13 20 7 11 1005.6 1005.6 -
14/08:00am 15.8 - - - - WNW 13 24 7 13 1005.6 1005.6 -
14/07:30am 15.3 - - - - W 13 26 7 14 1005.4 1005.4 -
14/07:00am 14.9 - - - - WSW 7 15 4 8 1005.3 1005.3 -
14/06:30am 15.1 - - - - W 11 19 6 10 1004.7 1004.7 -
14/06:00am 15.1 - - - - W 9 19 5 10 1004.6 1004.6 -
14/05:30am 14.8 - - - - W 9 17 5 9 1004.5 1004.5 -
14/05:00am 15.1 - - - - W 11 19 6 10 1004.4 1004.4 -
14/04:30am 15.4 - - - - W 11 17 6 9 1004.6 1004.6 -
14/04:00am 15.7 - - - - W 13 20 7 11 1004.7 1004.7 -
14/03:30am 15.3 - - - - WSW 13 20 7 11 1004.8 1004.8 -
14/03:00am 15.4 - - - - WNW 11 17 6 9 1004.9 1004.9 -
14/02:30am 15.5 - - - - WNW 7 15 4 8 1004.9 1004.9 -
14/02:00am 15.4 - - - - W 7 13 4 7 1004.9 1004.9 -
14/01:30am 15.4 - - - - W 7 15 4 8 1004.9 1004.9 -
14/01:00am 15.7 - - - - W 7 13 4 7 1005.2 1005.2 -
14/12:30am 15.9 - - - - W 11 17 6 9 1005.4 1005.4 -
14/12:00am 16.4 - - - - WSW 13 19 7 10 1005.6 1005.6 -
 
Date/Time
EDT
Temp
°C
App
Temp
°C
Dew
Point
Rel
Hum
%
Delta-T
°C
Wind Press
QNH
hPa
Press
MSL
hPa
Rain
since 9 am
mm
Dir
 
Spd
km/h
Gust
km/h
Spd
kts
Gust
kts
13/11:30pm 16.7 - - - - WSW 11 17 6 9 1005.6 1005.6 -
13/11:00pm 17.2 - - - - WNW 9 17 5 9 1006.0 1006.0 -
13/10:30pm 17.6 - - - - WSW 15 22 8 12 1006.0 1006.0 -
13/10:00pm 18.1 - - - - WSW 15 30 8 16 1006.1 1006.1 -
13/09:30pm 18.6 - - - - W 13 22 7 12 1005.4 1005.4 -
13/09:00pm 18.9 - - - - W 11 19 6 10 1005.0 1005.0 -
13/08:30pm 19.3 - - - - WSW 11 20 6 11 1004.5 1004.5 -
13/08:00pm 19.9 - - - - W 19 33 10 18 1004.2 1004.2 -
13/07:30pm 20.6 - - - - WNW 17 28 9 15 1003.9 1003.9 -
13/07:00pm 20.8 - - - - NW 43 52 23 28 1003.5 1003.5 -
13/06:30pm 22.2 - - - - NW 30 41 16 22 1003.2 1003.2 -
13/06:00pm 23.1 - - - - WSW 15 30 8 16 1003.0 1003.0 -
13/05:30pm 23.2 - - - - WSW 15 32 8 17 1003.1 1003.1 -
13/05:00pm 23.1 - - - - W 20 33 11 18 1003.3 1003.3 -
13/04:30pm 23.5 - - - - WNW 20 33 11 18 1003.3 1003.3 -
13/04:00pm 24.0 - - - - W 20 41 11 22 1003.0 1003.0 -
13/03:30pm 24.3 - - - - WNW 19 32 10 17 1002.8 1002.8 -
13/03:08pm 23.9 - - - - NW 26 43 14 23 1002.7 1002.7 -
13/03:00pm 21.4 - - - - NNW 39 52 21 28 1002.8 1002.8 -
13/02:30pm 20.4 - - - - NNW 43 52 23 28 1003.3 1003.3 -
13/02:00pm 20.2 - - - - NNW 43 52 23 28 1003.8 1003.8 -
13/01:30pm 20.5 - - - - NNW 35 43 19 23 1003.9 1003.9 -
13/01:00pm 20.4 - - - - NNW 30 37 16 20 1004.2 1004.2 -
13/12:30pm 20.0 - - - - NNW 26 32 14 17 1004.6 1004.6 -
13/12:00pm 19.8 - - - - NNW 22 26 12 14 1005.2 1005.2 -
13/11:30am 19.5 - - - - NNW 19 24 10 13 1005.5 1005.5 -
13/11:00am 19.7 - - - - NNW 15 19 8 10 1005.8 1005.8 -
13/10:30am 19.5 - - - - N 11 17 6 9 1006.1 1006.1 -
13/10:00am 19.4 - - - - NNE 4 6 2 3 1006.3 1006.3 -
13/09:30am 19.2 - - - - ESE 4 6 2 3 1006.8 1006.8 -
13/09:00am 18.7 - - - - S 7 9 4 5 1007.1 1007.1 -
13/08:30am 18.4 - - - - SSW 7 9 4 5 1007.1 1007.1 -
13/08:00am 17.8 - - - - SSW 7 9 4 5 1006.8 1006.8 -
13/07:30am 17.3 - - - - S 11 17 6 9 1006.6 1006.6 -
13/07:00am 17.9 - - - - SSW 7 11 4 6 1007.1 1007.1 -
13/06:30am 17.2 - - - - SSE 7 13 4 7 1006.7 1006.7 -
13/06:00am 17.3 - - - - SSW 11 13 6 7 1006.9 1006.9 -
13/05:30am 17.6 - - - - SSW 9 13 5 7 1007.3 1007.3 -
13/05:00am 17.5 - - - - SSW 13 17 7 9 1007.3 1007.3 -
13/04:30am 17.1 - - - - SSW 11 15 6 8 1007.5 1007.5 -
13/04:00am 17.4 - - - - S 9 11 5 6 1007.7 1007.7 -
13/03:30am 17.6 - - - - S 9 11 5 6 1008.2 1008.2 -
13/03:00am 17.5 - - - - SSW 9 11 5 6 1008.5 1008.5 -
13/02:30am 17.6 - - - - S 9 11 5 6 1008.8 1008.8 -
13/02:00am 17.3 - - - - S 9 13 5 7 1009.7 1009.7 -
13/01:30am 17.8 - - - - S 9 9 5 5 1009.9 1009.9 -
13/01:00am 17.7 - - - - S 6 7 3 4 1010.1 1010.1 -
13/12:30am 17.9 - - - - S 6 7 3 4 1010.3 1010.3 -
13/12:00am 17.8 - - - - S 7 9 4 5 1010.5 1010.5 -
 
Date/Time
EDT
Temp
°C
App
Temp
°C
Dew
Point
Rel
Hum
%
Delta-T
°C
Wind Press
QNH
hPa
Press
MSL
hPa
Rain
since 9 am
mm
Dir
 
Spd
km/h
Gust
km/h
Spd
kts
Gust
kts
12/11:30pm 18.5 - - - - SSW 6 7 3 4 1010.8 1010.8 -
12/11:00pm 18.3 - - - - SSE 6 9 3 5 1011.0 1011.0 -
12/10:30pm 19.1 - - - - SSW 4 6 2 3 1011.6 1011.6 -
12/10:00pm 19.4 - - - - N 2 4 1 2 1011.6 1011.6 -
12/09:30pm 19.5 - - - - NNW 6 9 3 5 1012.1 1012.1 -
12/09:00pm 19.7 - - - - N 6 9 3 5 1012.0 1012.0 -
12/08:30pm 19.7 - - - - NNW 6 9 3 5 1012.4 1012.4 -
12/08:00pm 19.8 - - - - NNW 7 11 4 6 1012.2 1012.2 -
12/07:30pm 19.8 - - - - NNW 7 11 4 6 1012.4 1012.4 -
12/07:00pm 19.7 - - - - N 9 15 5 8 1012.7 1012.7 -
12/06:30pm 19.7 - - - - N 9 13 5 7 1012.9 1012.9 -
12/06:00pm 19.8 - - - - N 11 13 6 7 1013.2 1013.2 -
12/05:30pm 19.8 - - - - N 9 15 5 8 1013.4 1013.4 -
12/05:00pm 19.8 - - - - N 9 13 5 7 1013.7 1013.7 -
12/04:30pm 19.8 - - - - N 9 11 5 6 1013.8 1013.8 -
12/04:00pm 19.7 - - - - NNE 9 11 5 6 1013.9 1013.9 -
12/03:30pm 19.6 - - - - NNE 9 11 5 6 1014.1 1014.1 -
12/03:00pm 19.6 - - - - NNE 9 13 5 7 1014.4 1014.4 -
12/02:30pm 19.6 - - - - NNE 11 13 6 7 1014.8 1014.8 -
12/02:00pm 19.6 - - - - NNE 9 11 5 6 1015.1 1015.1 -
12/01:30pm 19.6 - - - - NNE 11 13 6 7 1015.4 1015.4 -
12/01:00pm 19.5 - - - - NNE 13 15 7 8 1015.4 1015.4 -
12/12:30pm 19.6 - - - - NNE 11 13 6 7 1015.8 1015.8 -
12/12:00pm 19.6 - - - - ENE 7 13 4 7 1016.2 1016.2 -
12/11:30am 19.4 - - - - E 13 19 7 10 1016.3 1016.3 -
12/11:00am 19.4 - - - - E 15 19 8 10 1016.5 1016.5 -
12/10:30am 19.3 - - - - ESE 13 17 7 9 1016.8 1016.8 -
12/10:00am 19.2 - - - - ESE 17 20 9 11 1016.9 1016.9 -
12/09:30am 19.1 - - - - ESE 20 24 11 13 1016.9 1016.9 -
12/09:00am 19.1 - - - - ESE 15 19 8 10 1016.9 1016.9 -
12/08:30am 18.3 - - - - SSE 11 17 6 9 1016.7 1016.7 -
12/08:00am 17.7 - - - - S 13 17 7 9 1016.5 1016.5 -
12/07:30am 17.3 - - - - S 15 19 8 10 1016.1 1016.1 -
12/07:00am 17.2 - - - - S 15 19 8 10 1015.9 1015.9 -
12/06:30am 17.2 - - - - S 15 17 8 9 1015.6 1015.6 -

Other Formats:

Comma delimited format used in spreadsheet applications
http://www.bom.gov.au/fwo/IDT60801/IDT60801.95963.axf

JavaScript Object Notation format (JSON) in row-major order
http://www.bom.gov.au/fwo/IDT60801/IDT60801.95963.json